Time;durP1;ratioP1;P1;durP2;ratioP2;P2;SDS_P1;SDS_P2;PMS_P1;PMS_P2;Temp;Humidity;BMP_temperature;BMP_pressure;BME280_temperature;BME280_humidity;BME280_pressure;Samples;Min_cycle;Max_cycle;Signal;HPM_P1;HPM_P2
2021/05/11 00:01:39;;;;;;;0.10;0.10;;;15.10;99.90;;;;;;5017547;28;20210;-80
2021/05/11 00:04:05;;;;;;;0.60;0.30;;;15.10;99.90;;;;;;5014928;28;20199;-80
2021/05/11 00:06:31;;;;;;;0.13;0.13;;;15.20;99.90;;;;;;5016016;28;20202;-79
2021/05/11 00:08:56;;;;;;;0.10;0.10;;;15.20;99.90;;;;;;5030826;28;20678;-80
2021/05/11 00:11:22;;;;;;;0.00;0.00;;;15.20;99.90;;;;;;5011318;28;20204;-80
2021/05/11 00:13:47;;;;;;;0.13;0.13;;;15.20;99.90;;;;;;5028987;28;20191;-80
2021/05/11 00:16:13;;;;;;;0.10;0.10;;;15.30;99.90;;;;;;5014735;28;20203;-80
2021/05/11 00:18:38;;;;;;;0.20;0.20;;;15.20;99.90;;;;;;5011249;28;20193;-78
2021/05/11 00:21:04;;;;;;;1.03;0.70;;;15.20;99.90;;;;;;5029935;28;20249;-80
2021/05/11 00:23:30;;;;;;;0.30;0.30;;;15.20;99.90;;;;;;5015366;28;20561;-80
2021/05/11 00:25:56;;;;;;;0.10;0.10;;;15.20;99.90;;;;;;5014420;28;20218;-80
2021/05/11 00:28:21;;;;;;;0.30;0.30;;;15.20;99.90;;;;;;5013490;28;20217;-80
2021/05/11 00:30:47;;;;;;;0.20;0.20;;;15.20;99.90;;;;;;5012576;28;20593;-80
2021/05/11 00:33:12;;;;;;;0.10;0.10;;;15.20;99.90;;;;;;5028884;28;20229;-80
2021/05/11 00:35:38;;;;;;;0.10;0.10;;;15.30;99.90;;;;;;5020253;28;20209;-80
2021/05/11 00:38:04;;;;;;;0.23;0.23;;;15.30;99.90;;;;;;5014809;28;20187;-80
2021/05/11 00:40:29;;;;;;;0.37;0.30;;;14.70;99.90;;;;;;5010932;28;20802;-80
2021/05/11 00:42:55;;;;;;;0.10;0.10;;;14.60;99.90;;;;;;5028057;28;20240;-80
2021/05/11 00:45:20;;;;;;;0.10;0.10;;;14.80;99.90;;;;;;5011509;28;20213;-80
2021/05/11 00:47:46;;;;;;;0.20;0.20;;;14.80;99.90;;;;;;5029763;28;20185;-80
2021/05/11 00:50:12;;;;;;;0.10;0.10;;;14.80;99.90;;;;;;5015302;28;20612;-80
2021/05/11 00:52:39;;;;;;;0.43;0.43;;;14.90;99.90;;;;;;5028482;28;20189;-79
2021/05/11 00:55:05;;;;;;;0.30;0.30;;;15.00;99.90;;;;;;5013797;28;20211;-80
2021/05/11 00:57:32;;;;;;;0.10;0.10;;;15.10;99.90;;;;;;5013039;28;20184;-80
2021/05/11 00:59:59;;;;;;;0.20;0.20;;;15.10;99.90;;;;;;5012738;28;20308;-78
2021/05/11 01:02:25;;;;;;;0.20;0.20;;;15.10;99.90;;;;;;5027193;28;20194;-80
2021/05/11 01:04:50;;;;;;;0.77;0.30;;;15.00;99.90;;;;;;5014319;28;20279;-79
2021/05/11 01:07:16;;;;;;;0.30;0.20;;;14.90;99.90;;;;;;5015325;28;20272;-79
2021/05/11 01:09:42;;;;;;;0.10;0.10;;;14.90;99.90;;;;;;5013165;28;20538;-80
2021/05/11 01:12:08;;;;;;;0.20;0.20;;;15.00;99.90;;;;;;5011550;28;20190;-80
2021/05/11 01:14:34;;;;;;;0.10;0.10;;;15.00;99.90;;;;;;5011812;28;20201;-80
2021/05/11 01:17:00;;;;;;;0.30;0.30;;;15.00;99.90;;;;;;5012937;28;20183;-79
2021/05/11 01:25:01;;;;;;;0.10;0.10;;;14.70;99.90;;;;;;5014014;28;20703;-79
2021/05/11 01:58:56;;;;;;;0.30;0.30;;;14.80;99.90;;;;;;5016533;28;20213;-80
2021/05/11 02:18:14;;;;;;;0.47;0.47;;;14.20;99.90;;;;;;5020115;28;20190;-80
2021/05/11 02:23:28;;;;;;;0.20;0.20;;;14.40;99.90;;;;;;5002617;28;20731;-80
2021/05/11 02:25:55;;;;;;;0.77;0.30;;;14.40;99.90;;;;;;5028787;28;20222;-79
2021/05/11 02:28:20;;;;;;;0.30;0.30;;;14.60;99.90;;;;;;5013390;28;20183;-80
2021/05/11 02:30:46;;;;;;;0.20;0.20;;;14.60;99.90;;;;;;5027447;28;20201;-80
2021/05/11 02:33:11;;;;;;;0.20;0.20;;;14.60;99.90;;;;;;5014561;28;20677;-80
2021/05/11 02:35:37;;;;;;;0.50;0.20;;;14.60;99.90;;;;;;5012810;28;20225;-80
2021/05/11 02:38:03;;;;;;;0.10;0.10;;;14.60;99.90;;;;;;5012348;28;20194;-80
2021/05/11 02:40:29;;;;;;;0.20;0.10;;;14.60;99.90;;;;;;5011316;28;20854;-79
2021/05/11 02:43:00;;;;;;;0.03;0.03;;;14.60;99.90;;;;;;5010675;28;20201;-79
2021/05/11 02:45:26;;;;;;;0.27;0.20;;;14.70;99.90;;;;;;5011763;28;20200;-80
2021/05/11 02:47:51;;;;;;;0.13;0.13;;;14.70;99.90;;;;;;5013615;28;20182;-80
2021/05/11 02:50:21;;;;;;;0.77;0.40;;;14.70;99.90;;;;;;5013415;28;20197;-80
2021/05/11 02:52:47;;;;;;;1.10;0.50;;;14.70;99.90;;;;;;5027567;28;20301;-80
2021/05/11 02:55:14;;;;;;;0.53;0.53;;;14.70;99.90;;;;;;5019512;28;20237;-80
2021/05/11 02:57:40;;;;;;;0.23;0.13;;;14.50;99.90;;;;;;5026603;28;20194;-80
2021/05/11 03:00:07;;;;;;;0.20;0.20;;;14.60;99.90;;;;;;5010446;28;20264;-79
2021/05/11 03:02:33;;;;;;;0.10;0.10;;;14.50;99.90;;;;;;5011158;28;20183;-80
2021/05/11 03:04:58;;;;;;;0.20;0.20;;;14.50;99.90;;;;;;5015439;28;20200;-79
2021/05/11 03:07:24;;;;;;;0.17;0.10;;;14.60;99.90;;;;;;5029183;28;20590;-80
2021/05/11 03:09:50;;;;;;;0.20;0.20;;;14.60;99.90;;;;;;5009191;28;20188;-79
2021/05/11 03:12:16;;;;;;;0.10;0.10;;;14.50;99.90;;;;;;5023805;28;20188;-79
2021/05/11 03:14:41;;;;;;;0.17;0.17;;;14.60;99.90;;;;;;5020238;28;20197;-79
2021/05/11 03:17:07;;;;;;;0.10;0.10;;;14.50;99.90;;;;;;5027790;28;20263;-80
2021/05/11 03:19:32;;;;;;;0.00;0.00;;;14.50;99.90;;;;;;5026456;28;20197;-80
2021/05/11 03:21:58;;;;;;;0.10;0.10;;;14.60;99.90;;;;;;5021631;28;20267;-80
2021/05/11 03:24:24;;;;;;;0.10;0.10;;;14.60;99.90;;;;;;5025111;28;20190;-79
2021/05/11 03:26:52;;;;;;;0.13;0.13;;;14.50;99.90;;;;;;5025613;28;20198;-80
2021/05/11 03:29:18;;;;;;;0.20;0.20;;;14.60;99.90;;;;;;5009343;28;20272;-78
2021/05/11 03:31:44;;;;;;;0.33;0.20;;;14.60;99.90;;;;;;5011033;28;20246;-79
2021/05/11 03:34:09;;;;;;;0.10;0.10;;;14.70;99.90;;;;;;5009967;28;20209;-80
2021/05/11 03:36:35;;;;;;;0.20;0.20;;;14.80;99.90;;;;;;5024433;28;20309;-80
2021/05/11 03:39:05;;;;;;;0.10;0.10;;;14.80;99.90;;;;;;5009913;28;20289;-80
2021/05/11 03:41:36;;;;;;;0.27;0.27;;;14.80;99.90;;;;;;5012994;28;20688;-79
2021/05/11 03:44:11;;;;;;;0.10;0.10;;;14.80;99.90;;;;;;5018283;28;20192;-80
2021/05/11 03:46:38;;;;;;;0.10;0.10;;;14.80;99.90;;;;;;5008589;28;20204;-79
2021/05/11 03:49:05;;;;;;;0.20;0.20;;;14.80;99.90;;;;;;5030212;28;20180;-80
2021/05/11 03:51:31;;;;;;;0.20;0.20;;;14.80;99.90;;;;;;5014131;28;20558;-80
2021/05/11 03:53:57;;;;;;;0.43;0.43;;;14.70;99.90;;;;;;5013135;28;20234;-82
2021/05/11 03:56:23;;;;;;;0.20;0.20;;;14.60;99.90;;;;;;5026981;28;20206;-82
2021/05/11 03:58:48;;;;;;;0.30;0.30;;;14.60;99.90;;;;;;5007425;28;20613;-79
2021/05/11 04:01:14;;;;;;;1.27;0.57;;;14.50;99.90;;;;;;4998567;28;20217;-79
2021/05/11 04:03:39;;;;;;;0.20;0.20;;;14.50;99.90;;;;;;5007204;28;20197;-79
2021/05/11 04:06:05;;;;;;;3.97;0.50;;;14.40;99.90;;;;;;5008768;28;20210;-79
2021/05/11 04:11:02;;;;;;;0.10;0.10;;;14.50;99.90;;;;;;5017725;28;20202;-79
2021/05/11 04:16:14;;;;;;;0.93;0.43;;;14.40;99.90;;;;;;5008214;28;20271;-79
2021/05/11 04:18:39;;;;;;;0.10;0.10;;;14.30;99.90;;;;;;5010321;28;20650;-79
2021/05/11 04:21:05;;;;;;;0.67;0.67;;;14.30;99.90;;;;;;5010853;28;20246;-78
2021/05/11 04:23:30;;;;;;;0.13;0.13;;;14.20;99.90;;;;;;5010499;28;20631;-79
2021/05/11 04:25:56;;;;;;;0.30;0.30;;;14.20;99.90;;;;;;5013064;28;20209;-79
2021/05/11 04:28:21;;;;;;;0.50;0.30;;;14.20;99.90;;;;;;5012029;28;20191;-79
2021/05/11 04:30:47;;;;;;;0.50;0.40;;;14.30;99.90;;;;;;5009761;28;20656;-80
2021/05/11 04:33:13;;;;;;;0.30;0.30;;;14.30;99.90;;;;;;5028372;28;20190;-79
2021/05/11 04:35:39;;;;;;;0.33;0.33;;;14.30;99.90;;;;;;5008345;28;20223;-80
2021/05/11 04:38:05;;;;;;;0.20;0.20;;;14.30;99.90;;;;;;5027990;28;20198;-80
2021/05/11 04:40:30;;;;;;;0.10;0.10;;;14.30;99.90;;;;;;5025582;28;20362;-79
2021/05/11 04:42:57;;;;;;;0.10;0.10;;;14.50;99.90;;;;;;5010777;28;20197;-79
2021/05/11 04:45:24;;;;;;;0.20;0.20;;;14.50;99.90;;;;;;5010928;28;20225;-79
2021/05/11 04:47:52;;;;;;;0.20;0.20;;;14.60;99.90;;;;;;5012819;28;20184;-79
2021/05/11 04:50:20;;;;;;;0.50;0.50;;;14.40;99.90;;;;;;5012574;28;20218;-78
2021/05/11 04:52:46;;;;;;;0.20;0.20;;;14.40;99.90;;;;;;5026523;28;20258;-79
2021/05/11 04:55:13;;;;;;;0.77;0.63;;;14.50;99.90;;;;;;5012474;28;20210;-79
2021/05/11 04:57:39;;;;;;;0.00;0.00;;;14.60;99.90;;;;;;5026952;28;20192;-79
2021/05/11 05:00:07;;;;;;;0.23;0.23;;;14.60;99.90;;;;;;5009329;28;20198;-79
2021/05/11 05:02:34;;;;;;;1.13;1.13;;;14.50;99.90;;;;;;5011175;28;20183;-79
2021/05/11 05:05:00;;;;;;;0.10;0.10;;;14.50;99.90;;;;;;5013913;28;20243;-79
2021/05/11 05:07:25;;;;;;;0.10;0.10;;;14.50;99.90;;;;;;5014394;28;20224;-79
2021/05/11 05:09:51;;;;;;;0.10;0.10;;;14.30;99.90;;;;;;5006735;28;20188;-80
2021/05/11 05:12:16;;;;;;;0.00;0.00;;;14.20;99.90;;;;;;5010681;28;20572;-79
2021/05/11 05:14:42;;;;;;;0.20;0.20;;;14.30;99.90;;;;;;5012492;28;20208;-80
2021/05/11 05:17:08;;;;;;;0.10;0.10;;;14.50;99.90;;;;;;5034808;28;20185;-83
2021/05/11 05:19:36;;;;;;;0.60;0.20;;;14.80;99.90;;;;;;5028195;28;20225;-82
2021/05/11 05:22:03;;;;;;;0.97;0.20;;;15.00;99.90;;;;;;5013430;28;20213;-83
2021/05/11 05:24:37;;;;;;;1.20;0.20;;;15.10;99.90;;;;;;5011617;28;20275;-79
2021/05/11 05:29:48;;;;;;;0.20;0.20;;;15.20;99.90;;;;;;5014948;28;20212;-79
2021/05/11 05:32:14;;;;;;;0.20;0.20;;;15.20;99.90;;;;;;5015150;28;20210;-78
2021/05/11 05:34:41;;;;;;;0.10;0.10;;;15.20;99.90;;;;;;5015544;28;20201;-78
2021/05/11 05:37:07;;;;;;;0.10;0.10;;;15.30;99.90;;;;;;5016148;28;20194;-79
2021/05/11 05:39:42;;;;;;;0.10;0.10;;;15.40;99.90;;;;;;5015372;28;20213;-80
2021/05/11 05:42:08;;;;;;;0.20;0.20;;;15.30;99.90;;;;;;5031258;28;20208;-78
2021/05/11 05:44:33;;;;;;;0.20;0.20;;;15.30;99.90;;;;;;5005140;28;20230;-82
2021/05/11 05:46:59;;;;;;;0.10;0.10;;;15.50;99.90;;;;;;5011669;28;20267;-83
2021/05/11 05:49:30;;;;;;;0.13;0.13;;;15.80;99.90;;;;;;5026956;28;20186;-82
2021/05/11 05:52:01;;;;;;;0.10;0.10;;;16.10;99.90;;;;;;5008572;28;20189;-80
2021/05/11 05:54:27;;;;;;;0.83;0.27;;;16.30;99.90;;;;;;5013388;28;20189;-81
2021/05/11 05:56:53;;;;;;;0.30;0.10;;;16.40;99.90;;;;;;5012952;28;20188;-79
2021/05/11 05:59:18;;;;;;;0.20;0.20;;;16.60;99.90;;;;;;5011504;28;20690;-81
2021/05/11 06:01:48;;;;;;;0.10;0.10;;;16.70;99.90;;;;;;5007770;28;20209;-83
2021/05/11 06:04:15;;;;;;;0.17;0.17;;;16.70;99.90;;;;;;5011720;28;20651;-83
2021/05/11 06:06:41;;;;;;;0.40;0.40;;;16.50;99.90;;;;;;5010381;28;20624;-82
2021/05/11 06:09:12;;;;;;;0.10;0.10;;;16.50;99.90;;;;;;5008142;28;20270;-83
2021/05/11 06:11:44;;;;;;;0.10;0.10;;;16.50;99.90;;;;;;5013891;28;20185;-82
2021/05/11 06:14:16;;;;;;;0.37;0.37;;;16.40;99.90;;;;;;5012601;28;20187;-83
2021/05/11 06:19:26;;;;;;;0.10;0.10;;;16.50;99.90;;;;;;5010085;28;20273;-83
2021/05/11 06:21:51;;;;;;;0.10;0.10;;;16.50;99.90;;;;;;5008267;28;20300;-83
2021/05/11 06:24:17;;;;;;;0.37;0.30;;;16.60;99.90;;;;;;5015554;28;20253;-80
2021/05/11 06:26:45;;;;;;;0.87;0.30;;;16.60;99.90;;;;;;5012189;28;20230;-80
2021/05/11 06:29:11;;;;;;;0.10;0.10;;;16.40;99.90;;;;;;5011018;28;20183;-81
2021/05/11 06:31:36;;;;;;;0.13;0.13;;;16.20;99.90;;;;;;5009406;28;20248;-80
2021/05/11 06:34:04;;;;;;;0.30;0.30;;;16.10;99.90;;;;;;5010883;28;20190;-80
2021/05/11 06:36:29;;;;;;;0.30;0.30;;;16.00;99.90;;;;;;5009099;28;20241;-81
2021/05/11 06:38:55;;;;;;;0.20;0.20;;;16.10;99.90;;;;;;5011387;28;20643;-80
2021/05/11 06:41:20;;;;;;;0.10;0.10;;;16.00;99.90;;;;;;5011690;28;20221;-81
2021/05/11 06:43:47;;;;;;;0.20;0.20;;;16.00;99.90;;;;;;5011326;28;20188;-81
2021/05/11 06:49:15;;;;;;;0.20;0.20;;;16.00;99.90;;;;;;5010353;28;20179;-80
2021/05/11 06:54:10;;;;;;;0.20;0.20;;;16.10;99.90;;;;;;5022028;28;20285;-81
2021/05/11 06:56:37;;;;;;;0.10;0.10;;;16.00;99.90;;;;;;5013694;28;20682;-79
2021/05/11 06:59:03;;;;;;;0.50;0.20;;;16.10;99.90;;;;;;5012301;28;20183;-78
2021/05/11 07:01:29;;;;;;;0.10;0.10;;;16.20;99.90;;;;;;5011223;28;20207;-79
2021/05/11 07:03:54;;;;;;;0.10;0.10;;;16.20;99.90;;;;;;5009056;28;20208;-80
2021/05/11 07:06:20;;;;;;;0.20;0.20;;;16.20;99.90;;;;;;5004926;28;20202;-86
2021/05/11 07:08:50;;;;;;;0.10;0.10;;;16.20;99.90;;;;;;5024672;28;20555;-80
2021/05/11 07:13:48;;;;;;;0.20;0.20;;;16.10;99.90;;;;;;5009631;28;20198;-80
2021/05/11 07:16:14;;;;;;;0.37;0.37;;;15.90;99.90;;;;;;5008730;28;20685;-80
2021/05/11 07:18:39;;;;;;;0.00;0.00;;;15.80;99.90;;;;;;5026431;28;20187;-79
2021/05/11 07:21:05;;;;;;;0.20;0.20;;;15.70;99.90;;;;;;5013610;28;20231;-80
2021/05/11 07:23:32;;;;;;;0.20;0.20;;;15.50;99.90;;;;;;5029067;28;20191;-80
2021/05/11 07:30:58;;;;;;;0.10;0.10;;;15.90;99.90;;;;;;5013261;28;20547;-78
2021/05/11 07:33:32;;;;;;;0.40;0.40;;;15.70;99.90;;;;;;5028055;28;20190;-80
2021/05/11 07:35:58;;;;;;;0.20;0.20;;;15.90;99.90;;;;;;5012297;28;20349;-80
2021/05/11 07:38:25;;;;;;;0.20;0.20;;;16.40;99.90;;;;;;5010249;28;20785;-80
2021/05/11 07:40:51;;;;;;;0.20;0.20;;;16.50;99.90;;;;;;5010283;28;20633;-80
2021/05/11 07:43:17;;;;;;;0.10;0.10;;;16.50;99.90;;;;;;5012177;28;20190;-80
2021/05/11 07:48:46;;;;;;;0.10;0.10;;;16.40;99.90;;;;;;5010063;28;20223;-79
2021/05/11 08:15:24;;;;;;;0.10;0.10;;;16.60;99.90;;;;;;5010376;28;20272;-79
2021/05/11 08:17:58;;;;;;;0.20;0.20;;;16.90;99.90;;;;;;5012991;28;20236;-79
2021/05/11 08:23:25;;;;;;;0.10;0.10;;;16.80;99.90;;;;;;5013766;28;20183;-79
2021/05/11 08:28:38;;;;;;;0.20;0.20;;;16.70;99.90;;;;;;5014001;28;20196;-79
2021/05/11 08:31:04;;;;;;;0.10;0.10;;;16.60;99.90;;;;;;5028680;28;20191;-80
2021/05/11 08:33:30;;;;;;;0.30;0.10;;;16.50;99.90;;;;;;5014257;28;20182;-80
2021/05/11 08:35:55;;;;;;;0.10;0.10;;;16.50;99.90;;;;;;5031947;28;20255;-79
2021/05/11 08:38:21;;;;;;;0.10;0.10;;;16.50;99.90;;;;;;5026721;28;20245;-82
2021/05/11 08:40:46;;;;;;;0.10;0.10;;;16.60;99.90;;;;;;5012995;28;21376;-82
2021/05/11 08:43:35;;;;;;;0.10;0.10;;;16.60;99.90;;;;;;5011319;28;20324;-78
2021/05/11 08:46:04;;;;;;;0.10;0.10;;;16.80;99.90;;;;;;5014981;28;20213;-79
2021/05/11 08:48:30;;;;;;;0.13;0.13;;;16.90;99.90;;;;;;5029507;28;20282;-79
2021/05/11 08:51:23;;;;;;;0.10;0.10;;;16.80;99.90;;;;;;5014589;28;20719;-78
2021/05/11 09:08:09;;;;;;;0.10;0.10;;;16.80;99.90;;;;;;5003225;28;20217;-80
2021/05/11 10:49:43;;;;;;;0.10;0.10;;;17.40;99.90;;;;;;5013771;28;20192;-83
2021/05/11 10:52:24;;;;;;;0.10;0.10;;;17.40;99.90;;;;;;4986114;28;20198;-82
2021/05/11 10:55:02;;;;;;;0.20;0.20;;;17.40;99.90;;;;;;5004624;28;20199;-82
2021/05/11 10:57:36;;;;;;;0.20;0.20;;;17.20;99.90;;;;;;5006808;28;20183;-82
2021/05/11 11:03:17;;;;;;;0.50;0.50;;;17.00;99.90;;;;;;5010635;28;21072;-81
2021/05/11 11:05:45;;;;;;;0.20;0.20;;;16.80;99.90;;;;;;5010068;28;20237;-82
2021/05/11 11:08:30;;;;;;;0.37;0.37;;;16.70;99.90;;;;;;5009030;28;20183;-82
2021/05/11 11:11:20;;;;;;;0.10;0.10;;;16.70;99.90;;;;;;5014820;28;20566;-82
2021/05/11 11:13:47;;;;;;;0.27;0.27;;;16.50;99.90;;;;;;5009397;28;20186;-81
2021/05/11 11:16:14;;;;;;;0.33;0.33;;;16.60;99.90;;;;;;5015240;28;20297;-82
2021/05/11 11:18:40;;;;;;;0.13;0.13;;;16.60;99.90;;;;;;5007735;28;20182;-82
2021/05/11 11:23:52;;;;;;;0.10;0.10;;;16.90;99.90;;;;;;5009782;28;20684;-82
2021/05/11 11:26:30;;;;;;;1.53;0.30;;;17.00;99.90;;;;;;5013488;28;20557;-82
2021/05/11 11:29:06;;;;;;;0.30;0.30;;;17.20;99.90;;;;;;5005678;28;20189;-82
2021/05/11 11:31:34;;;;;;;0.20;0.20;;;17.40;99.90;;;;;;5011241;28;20193;-81
2021/05/11 11:34:35;;;;;;;0.10;0.10;;;17.70;99.90;;;;;;5010568;28;20662;-82
2021/05/11 11:37:13;;;;;;;0.27;0.27;;;18.00;99.90;;;;;;5020386;28;20516;-82
2021/05/11 11:39:47;;;;;;;1.10;0.70;;;17.90;99.90;;;;;;5011809;28;20183;-82
2021/05/11 11:42:24;;;;;;;0.23;0.23;;;17.50;99.90;;;;;;5013438;28;20737;-80
2021/05/11 11:44:57;;;;;;;0.37;0.37;;;17.40;99.90;;;;;;5010648;28;20198;-82
2021/05/11 11:47:24;;;;;;;0.10;0.10;;;17.30;99.90;;;;;;5012220;28;20258;-82
2021/05/11 11:49:56;;;;;;;0.40;0.40;;;17.20;99.90;;;;;;5012645;28;20603;-82
2021/05/11 12:00:06;;;;;;;0.30;0.30;;;16.90;99.90;;;;;;5013111;28;20245;-81
2021/05/11 12:02:32;;;;;;;0.37;0.37;;;16.90;99.90;;;;;;5013675;28;20814;-82
2021/05/11 12:05:29;;;;;;;0.10;0.10;;;16.90;99.90;;;;;;5012763;28;20213;-81
2021/05/11 12:08:09;;;;;;;0.10;0.10;;;17.00;99.90;;;;;;5018829;28;20194;-82
2021/05/11 12:10:37;;;;;;;0.27;0.27;;;16.80;99.90;;;;;;5012719;28;20183;-82
2021/05/11 12:13:08;;;;;;;0.47;0.13;;;16.70;99.90;;;;;;5029219;28;20214;-81
2021/05/11 12:15:34;;;;;;;0.30;0.30;;;16.60;99.90;;;;;;5014962;28;20196;-82
2021/05/11 12:18:05;;;;;;;0.20;0.20;;;16.60;99.90;;;;;;5012577;28;20792;-82
2021/05/11 12:20:31;;;;;;;0.10;0.10;;;16.70;99.90;;;;;;5008438;28;20179;-82
2021/05/11 12:23:07;;;;;;;0.30;0.30;;;16.60;99.90;;;;;;5014554;28;20870;-82
2021/05/11 12:25:34;;;;;;;0.20;0.20;;;16.60;99.90;;;;;;5025197;28;20701;-81
2021/05/11 12:28:00;;;;;;;0.10;0.10;;;16.60;99.90;;;;;;5016099;28;20185;-82
2021/05/11 12:30:41;;;;;;;0.20;0.20;;;16.60;99.90;;;;;;5010137;28;20183;-81
2021/05/11 12:33:09;;;;;;;0.10;0.10;;;16.60;99.90;;;;;;5010261;28;20204;-81
2021/05/11 12:35:35;;;;;;;0.50;0.23;;;16.60;99.90;;;;;;5014412;28;20234;-82
2021/05/11 12:38:10;;;;;;;0.10;0.10;;;16.40;99.90;;;;;;5025908;28;20187;-82
2021/05/11 12:41:13;;;;;;;0.10;0.10;;;16.40;99.90;;;;;;5020557;28;20191;-81
2021/05/11 12:43:43;;;;;;;0.20;0.20;;;16.40;99.90;;;;;;5009832;28;20285;-82
2021/05/11 12:46:25;;;;;;;0.10;0.10;;;16.20;99.90;;;;;;5009146;28;20254;-82
2021/05/11 12:48:56;;;;;;;0.10;0.10;;;16.20;99.90;;;;;;5009429;28;20182;-82
2021/05/11 12:51:39;;;;;;;3.87;0.20;;;16.10;99.90;;;;;;5011353;28;20216;-83
2021/05/11 12:54:40;;;;;;;0.60;0.40;;;16.10;99.90;;;;;;5013385;28;20210;-82
2021/05/11 12:59:53;;;;;;;0.10;0.10;;;16.00;99.90;;;;;;5012618;28;20204;-82
2021/05/11 13:16:52;;;;;;;0.47;0.20;;;16.20;99.90;;;;;;5012268;28;20237;-82
2021/05/11 13:28:00;;;;;;;0.23;0.23;;;16.20;99.90;;;;;;5005090;28;20188;-83
2021/05/11 13:30:40;;;;;;;0.40;0.40;;;16.30;99.90;;;;;;5014413;28;20185;-82
2021/05/11 13:35:33;;;;;;;0.20;0.20;;;16.00;99.90;;;;;;5011178;28;20212;-82
2021/05/11 13:37:58;;;;;;;0.20;0.10;;;16.00;99.90;;;;;;5028437;28;20206;-82
2021/05/11 13:40:24;;;;;;;0.10;0.10;;;15.90;99.90;;;;;;5011901;28;20281;-82
2021/05/11 13:42:51;;;;;;;0.40;0.40;;;15.80;99.90;;;;;;5027236;28;20188;-82
2021/05/11 13:45:17;;;;;;;0.20;0.20;;;15.80;99.90;;;;;;5010866;28;20240;-82
2021/05/11 13:47:55;;;;;;;0.30;0.30;;;15.70;99.90;;;;;;5011889;28;20266;-80
2021/05/11 13:50:23;;;;;;;0.10;0.10;;;15.70;99.90;;;;;;5011203;28;20181;-82
2021/05/11 13:52:49;;;;;;;0.10;0.10;;;15.80;99.90;;;;;;5002771;28;20188;-80
2021/05/11 13:55:23;;;;;;;0.20;0.20;;;15.80;99.90;;;;;;5025258;28;20209;-82
2021/05/11 14:03:21;;;;;;;0.10;0.10;;;15.90;99.90;;;;;;4999158;28;20228;-82
2021/05/11 14:05:47;;;;;;;0.20;0.20;;;16.00;99.90;;;;;;5011045;28;20219;-82
2021/05/11 14:08:12;;;;;;;0.20;0.20;;;16.10;99.90;;;;;;5007957;28;20201;-81
2021/05/11 14:10:40;;;;;;;0.10;0.10;;;16.30;99.90;;;;;;5014588;28;20198;-82
2021/05/11 14:13:05;;;;;;;0.10;0.10;;;16.30;99.90;;;;;;5010723;28;20176;-83
2021/05/11 14:15:32;;;;;;;0.10;0.10;;;16.40;99.90;;;;;;5027033;28;20218;-82
2021/05/11 14:17:58;;;;;;;0.47;0.20;;;16.60;99.90;;;;;;5009988;28;20212;-81
2021/05/11 14:20:23;;;;;;;0.10;0.10;;;16.40;99.90;;;;;;5027850;28;20310;-82
2021/05/11 14:22:49;;;;;;;0.10;0.10;;;16.60;99.90;;;;;;5020914;28;20276;-82
2021/05/11 14:25:15;;;;;;;0.20;0.20;;;16.70;99.90;;;;;;5012366;28;20737;-82
2021/05/11 14:27:40;;;;;;;0.20;0.20;;;16.90;99.90;;;;;;5008571;28;20624;-82
2021/05/11 14:30:07;;;;;;;0.13;0.13;;;17.00;99.90;;;;;;5010522;28;20225;-82
2021/05/11 14:32:32;;;;;;;0.10;0.10;;;17.10;99.90;;;;;;5009789;28;20245;-82
2021/05/11 14:34:58;;;;;;;0.20;0.20;;;17.30;99.90;;;;;;5011782;28;20221;-82
2021/05/11 14:37:23;;;;;;;0.57;0.50;;;17.40;99.90;;;;;;5010400;28;20197;-82
2021/05/11 14:39:49;;;;;;;3.20;0.20;;;17.30;99.90;;;;;;5008373;28;20205;-82
2021/05/11 14:42:14;;;;;;;0.50;0.30;;;17.20;99.90;;;;;;5009547;28;20686;-82
2021/05/11 14:44:40;;;;;;;0.17;0.17;;;17.30;99.90;;;;;;5009749;28;20208;-82
2021/05/11 14:47:06;;;;;;;0.20;0.20;;;17.20;99.90;;;;;;5009394;28;20269;-83
2021/05/11 14:49:32;;;;;;;0.10;0.10;;;17.30;99.90;;;;;;5022354;28;20232;-83
2021/05/11 14:51:58;;;;;;;0.30;0.30;;;17.30;99.90;;;;;;5006301;28;20728;-80
2021/05/11 14:54:24;;;;;;;0.17;0.10;;;17.30;99.90;;;;;;5009310;28;20190;-81
2021/05/11 14:56:49;;;;;;;0.10;0.10;;;17.40;99.90;;;;;;5028539;28;20210;-81
2021/05/11 14:59:15;;;;;;;0.17;0.17;;;17.20;99.90;;;;;;5028458;28;20198;-81
2021/05/11 15:01:40;;;;;;;5.83;0.30;;;17.20;99.90;;;;;;5015516;28;20217;-80
2021/05/11 15:04:06;;;;;;;0.30;0.30;;;17.00;99.90;;;;;;5010873;28;20688;-80
2021/05/11 15:06:33;;;;;;;0.10;0.10;;;16.90;99.90;;;;;;5011805;28;20595;-80
2021/05/11 15:08:59;;;;;;;0.50;0.50;;;17.00;99.90;;;;;;5013299;28;20182;-81
2021/05/11 15:11:25;;;;;;;0.53;0.50;;;16.90;99.90;;;;;;5024017;28;20195;-81
2021/05/11 15:13:52;;;;;;;1.17;0.30;;;16.80;99.90;;;;;;5012962;28;20332;-81
2021/05/11 15:16:25;;;;;;;0.17;0.17;;;16.60;99.90;;;;;;5020792;28;20216;-81
2021/05/11 15:18:50;;;;;;;0.10;0.10;;;16.60;99.90;;;;;;5020971;28;20182;-81
2021/05/11 15:21:18;;;;;;;0.10;0.10;;;16.70;99.90;;;;;;5015898;28;20574;-81
2021/05/11 15:23:44;;;;;;;0.50;0.30;;;16.80;99.90;;;;;;5013865;28;20743;-80
2021/05/11 15:26:12;;;;;;;0.20;0.20;;;16.80;99.90;;;;;;5006957;28;20199;-81
2021/05/11 15:28:39;;;;;;;0.10;0.10;;;16.90;99.90;;;;;;5015285;28;20184;-81
2021/05/11 15:31:05;;;;;;;0.00;0.00;;;16.80;99.90;;;;;;5010393;28;20189;-81
2021/05/11 15:33:32;;;;;;;0.20;0.20;;;16.80;99.90;;;;;;5007773;28;20187;-81
2021/05/11 15:36:00;;;;;;;0.50;0.50;;;16.70;99.90;;;;;;5017384;28;20229;-81
2021/05/11 15:38:29;;;;;;;0.10;0.10;;;16.70;99.90;;;;;;5011898;28;20185;-80
2021/05/11 15:40:55;;;;;;;0.20;0.20;;;16.70;99.90;;;;;;5011830;28;20868;-81
2021/05/11 15:43:20;;;;;;;0.43;0.43;;;16.60;99.90;;;;;;5021022;28;20260;-81
2021/05/11 15:45:47;;;;;;;0.10;0.10;;;16.60;99.90;;;;;;5013367;28;20689;-80
2021/05/11 15:48:13;;;;;;;0.13;0.13;;;16.50;99.90;;;;;;5030015;28;20193;-81
2021/05/11 15:50:41;;;;;;;0.10;0.10;;;16.60;99.90;;;;;;5011776;28;20208;-81
2021/05/11 15:53:09;;;;;;;5.53;0.40;;;16.50;99.90;;;;;;5013838;28;20207;-81
2021/05/11 15:55:38;;;;;;;0.77;0.30;;;16.50;99.90;;;;;;5013122;28;20651;-80
2021/05/11 15:58:04;;;;;;;0.20;0.20;;;16.30;99.90;;;;;;5014004;28;20662;-81
2021/05/11 16:00:30;;;;;;;0.10;0.10;;;16.30;99.90;;;;;;5012565;28;20186;-82
2021/05/11 16:02:58;;;;;;;0.10;0.10;;;16.20;99.90;;;;;;5008776;28;20244;-81
2021/05/11 16:05:24;;;;;;;0.07;0.07;;;16.20;99.90;;;;;;5013579;28;20233;-81
2021/05/11 16:07:51;;;;;;;0.20;0.20;;;16.20;99.90;;;;;;5013225;28;20224;-81
2021/05/11 16:10:18;;;;;;;0.10;0.10;;;16.20;99.90;;;;;;5018516;28;20221;-80
2021/05/11 16:12:43;;;;;;;0.10;0.10;;;16.20;99.90;;;;;;5020079;28;20709;-81
2021/05/11 16:15:15;;;;;;;0.13;0.13;;;16.20;99.90;;;;;;5018449;28;20284;-81
2021/05/11 16:17:41;;;;;;;0.23;0.20;;;16.20;99.90;;;;;;5017544;28;20193;-81
2021/05/11 16:20:09;;;;;;;0.93;0.40;;;16.20;99.90;;;;;;5009259;28;20195;-79
2021/05/11 16:22:35;;;;;;;0.10;0.10;;;16.10;99.90;;;;;;5015063;28;20210;-81
2021/05/11 16:25:03;;;;;;;0.33;0.33;;;16.10;99.90;;;;;;5014315;28;20296;-81
2021/05/11 16:27:28;;;;;;;0.10;0.10;;;16.10;99.90;;;;;;5005490;28;20216;-81
2021/05/11 16:29:54;;;;;;;0.10;0.10;;;16.10;99.90;;;;;;5006584;28;20703;-81
2021/05/11 16:32:20;;;;;;;0.17;0.17;;;16.10;99.90;;;;;;5019656;28;20183;-81
2021/05/11 16:34:45;;;;;;;0.20;0.20;;;16.10;99.90;;;;;;5017350;28;20573;-79
2021/05/11 16:37:11;;;;;;;0.13;0.13;;;16.00;99.90;;;;;;5014876;28;20280;-81
2021/05/11 16:39:38;;;;;;;0.10;0.10;;;16.00;99.90;;;;;;5033560;28;20193;-81
2021/05/11 16:42:04;;;;;;;0.07;0.07;;;15.80;99.90;;;;;;5018606;28;20666;-82
2021/05/11 16:44:30;;;;;;;0.10;0.10;;;15.80;99.90;;;;;;5020569;28;20312;-78
2021/05/11 16:46:56;;;;;;;1.40;0.23;;;15.90;99.90;;;;;;5013555;28;20209;-77
2021/05/11 16:49:22;;;;;;;0.20;0.20;;;15.90;99.90;;;;;;5011317;28;20193;-79
2021/05/11 16:51:48;;;;;;;0.30;0.30;;;16.00;99.90;;;;;;5010201;28;20179;-79
2021/05/11 16:54:14;;;;;;;0.10;0.10;;;16.10;99.90;;;;;;5015436;28;20674;-78
2021/05/11 16:56:39;;;;;;;0.10;0.10;;;16.10;99.90;;;;;;5010587;28;20829;-78
2021/05/11 16:59:05;;;;;;;0.17;0.17;;;16.10;99.90;;;;;;5013245;28;20571;-78
2021/05/11 17:01:32;;;;;;;0.10;0.10;;;16.00;99.90;;;;;;5012492;28;20660;-78
2021/05/11 17:03:57;;;;;;;0.00;0.00;;;16.00;99.90;;;;;;5013925;28;20182;-79
2021/05/11 17:06:23;;;;;;;0.10;0.10;;;16.00;99.90;;;;;;5012820;28;20586;-80
2021/05/11 17:08:49;;;;;;;0.10;0.10;;;16.00;99.90;;;;;;5012368;28;20186;-79
2021/05/11 17:11:14;;;;;;;0.10;0.10;;;15.90;99.90;;;;;;5002933;28;20195;-79
2021/05/11 17:13:40;;;;;;;0.10;0.10;;;15.90;99.90;;;;;;5014095;28;20183;-79
2021/05/11 17:16:08;;;;;;;0.10;0.10;;;16.00;99.90;;;;;;5013108;28;20637;-79
2021/05/11 17:18:34;;;;;;;0.20;0.20;;;16.00;99.90;;;;;;5015034;28;20193;-79
2021/05/11 17:21:01;;;;;;;0.10;0.10;;;16.00;99.90;;;;;;5027291;28;20259;-78
2021/05/11 17:23:26;;;;;;;0.30;0.30;;;15.90;99.90;;;;;;5030123;28;20178;-79
2021/05/11 17:25:52;;;;;;;0.47;0.47;;;15.90;99.90;;;;;;5012889;28;20578;-78